sensor_id;sensor_type;location;lat;lon;timestamp;P1;durP1;ratioP1;P2;durP2;ratioP2
11984;SDS011;6052;53.246;10.368;2023-12-20T00:02:25;3.60;;;1.40;;
11984;SDS011;6052;53.246;10.368;2023-12-20T00:04:54;4.87;;;1.90;;
11984;SDS011;6052;53.246;10.368;2023-12-20T00:07:27;4.37;;;1.70;;
11984;SDS011;6052;53.246;10.368;2023-12-20T00:09:56;6.47;;;1.80;;
11984;SDS011;6052;53.246;10.368;2023-12-20T00:12:26;7.50;;;1.53;;
11984;SDS011;6052;53.246;10.368;2023-12-20T00:14:56;7.73;;;1.80;;
11984;SDS011;6052;53.246;10.368;2023-12-20T00:17:25;6.00;;;1.80;;
11984;SDS011;6052;53.246;10.368;2023-12-20T00:19:55;6.60;;;1.30;;
11984;SDS011;6052;53.246;10.368;2023-12-20T00:22:27;2.90;;;1.20;;
11984;SDS011;6052;53.246;10.368;2023-12-20T00:24:57;4.43;;;1.40;;
11984;SDS011;6052;53.246;10.368;2023-12-20T00:27:27;9.63;;;1.63;;
11984;SDS011;6052;53.246;10.368;2023-12-20T00:29:56;5.97;;;1.40;;
11984;SDS011;6052;53.246;10.368;2023-12-20T00:32:26;4.03;;;1.23;;
11984;SDS011;6052;53.246;10.368;2023-12-20T00:34:56;3.77;;;1.20;;
11984;SDS011;6052;53.246;10.368;2023-12-20T00:37:28;6.10;;;1.13;;
11984;SDS011;6052;53.246;10.368;2023-12-20T00:39:58;4.67;;;1.30;;
11984;SDS011;6052;53.246;10.368;2023-12-20T00:42:28;4.30;;;1.50;;
11984;SDS011;6052;53.246;10.368;2023-12-20T00:44:58;3.00;;;1.30;;
11984;SDS011;6052;53.246;10.368;2023-12-20T00:47:28;9.97;;;1.73;;
11984;SDS011;6052;53.246;10.368;2023-12-20T00:49:57;2.87;;;1.27;;
11984;SDS011;6052;53.246;10.368;2023-12-20T00:52:30;7.87;;;1.37;;
11984;SDS011;6052;53.246;10.368;2023-12-20T00:55:00;8.50;;;1.47;;
11984;SDS011;6052;53.246;10.368;2023-12-20T00:57:30;5.73;;;1.47;;
11984;SDS011;6052;53.246;10.368;2023-12-20T01:00:00;10.17;;;1.10;;
11984;SDS011;6052;53.246;10.368;2023-12-20T01:02:30;5.60;;;1.10;;
11984;SDS011;6052;53.246;10.368;2023-12-20T01:05:01;7.13;;;1.13;;
11984;SDS011;6052;53.246;10.368;2023-12-20T01:07:34;4.67;;;1.30;;
11984;SDS011;6052;53.246;10.368;2023-12-20T01:10:04;3.60;;;1.50;;
11984;SDS011;6052;53.246;10.368;2023-12-20T01:12:35;3.53;;;1.27;;
11984;SDS011;6052;53.246;10.368;2023-12-20T01:15:05;8.57;;;1.70;;
11984;SDS011;6052;53.246;10.368;2023-12-20T01:17:35;5.43;;;1.30;;
11984;SDS011;6052;53.246;10.368;2023-12-20T01:20:06;4.90;;;1.90;;
11984;SDS011;6052;53.246;10.368;2023-12-20T01:22:39;9.10;;;1.37;;
11984;SDS011;6052;53.246;10.368;2023-12-20T01:25:09;4.37;;;1.30;;
11984;SDS011;6052;53.246;10.368;2023-12-20T01:27:39;7.53;;;1.50;;
11984;SDS011;6052;53.246;10.368;2023-12-20T01:30:10;6.53;;;1.53;;
11984;SDS011;6052;53.246;10.368;2023-12-20T01:32:40;4.70;;;1.30;;
11984;SDS011;6052;53.246;10.368;2023-12-20T01:35:10;8.17;;;1.57;;
11984;SDS011;6052;53.246;10.368;2023-12-20T01:37:42;10.00;;;1.93;;
11984;SDS011;6052;53.246;10.368;2023-12-20T01:40:12;6.63;;;1.90;;
11984;SDS011;6052;53.246;10.368;2023-12-20T01:42:43;6.73;;;1.27;;
11984;SDS011;6052;53.246;10.368;2023-12-20T01:45:13;2.80;;;1.23;;
11984;SDS011;6052;53.246;10.368;2023-12-20T01:47:43;8.17;;;1.87;;
11984;SDS011;6052;53.246;10.368;2023-12-20T01:50:13;6.20;;;1.43;;
11984;SDS011;6052;53.246;10.368;2023-12-20T01:52:45;8.20;;;1.67;;
11984;SDS011;6052;53.246;10.368;2023-12-20T01:55:18;7.60;;;1.60;;
11984;SDS011;6052;53.246;10.368;2023-12-20T01:57:49;4.77;;;1.20;;
11984;SDS011;6052;53.246;10.368;2023-12-20T02:00:20;5.17;;;1.50;;
11984;SDS011;6052;53.246;10.368;2023-12-20T02:02:53;7.33;;;1.43;;
11984;SDS011;6052;53.246;10.368;2023-12-20T02:05:23;3.83;;;1.50;;
11984;SDS011;6052;53.246;10.368;2023-12-20T02:07:57;3.90;;;1.30;;
11984;SDS011;6052;53.246;10.368;2023-12-20T02:10:27;6.80;;;1.90;;
11984;SDS011;6052;53.246;10.368;2023-12-20T02:12:57;6.73;;;1.60;;
11984;SDS011;6052;53.246;10.368;2023-12-20T02:15:27;9.33;;;1.53;;
11984;SDS011;6052;53.246;10.368;2023-12-20T02:17:57;9.20;;;1.97;;
11984;SDS011;6052;53.246;10.368;2023-12-20T02:20:26;8.93;;;2.27;;
11984;SDS011;6052;53.246;10.368;2023-12-20T02:22:59;5.57;;;1.83;;
11984;SDS011;6052;53.246;10.368;2023-12-20T02:25:26;4.33;;;1.70;;
11984;SDS011;6052;53.246;10.368;2023-12-20T02:27:55;4.47;;;1.53;;
11984;SDS011;6052;53.246;10.368;2023-12-20T02:30:25;4.73;;;2.33;;
11984;SDS011;6052;53.246;10.368;2023-12-20T02:32:55;5.10;;;1.53;;
11984;SDS011;6052;53.246;10.368;2023-12-20T02:35:26;11.23;;;2.03;;
11984;SDS011;6052;53.246;10.368;2023-12-20T02:37:56;11.40;;;2.10;;
11984;SDS011;6052;53.246;10.368;2023-12-20T02:40:28;9.13;;;2.23;;
11984;SDS011;6052;53.246;10.368;2023-12-20T02:42:57;7.23;;;1.90;;
11984;SDS011;6052;53.246;10.368;2023-12-20T02:45:27;7.57;;;2.33;;
11984;SDS011;6052;53.246;10.368;2023-12-20T02:47:57;8.13;;;2.60;;
11984;SDS011;6052;53.246;10.368;2023-12-20T02:50:27;8.27;;;2.77;;
11984;SDS011;6052;53.246;10.368;2023-12-20T02:52:59;6.27;;;2.47;;
11984;SDS011;6052;53.246;10.368;2023-12-20T02:55:29;3.93;;;2.10;;
11984;SDS011;6052;53.246;10.368;2023-12-20T02:57:59;4.47;;;2.17;;
11984;SDS011;6052;53.246;10.368;2023-12-20T03:00:29;7.53;;;2.77;;
11984;SDS011;6052;53.246;10.368;2023-12-20T03:02:59;7.80;;;2.80;;
11984;SDS011;6052;53.246;10.368;2023-12-20T03:05:28;5.90;;;2.53;;
11984;SDS011;6052;53.246;10.368;2023-12-20T03:08:01;8.43;;;2.70;;
11984;SDS011;6052;53.246;10.368;2023-12-20T03:10:31;6.20;;;2.50;;
11984;SDS011;6052;53.246;10.368;2023-12-20T03:13:01;8.63;;;2.70;;
11984;SDS011;6052;53.246;10.368;2023-12-20T03:15:30;6.37;;;2.40;;
11984;SDS011;6052;53.246;10.368;2023-12-20T03:18:00;7.83;;;2.60;;
11984;SDS011;6052;53.246;10.368;2023-12-20T03:20:30;7.83;;;2.40;;
11984;SDS011;6052;53.246;10.368;2023-12-20T03:23:03;6.77;;;2.37;;
11984;SDS011;6052;53.246;10.368;2023-12-20T03:25:33;7.20;;;2.03;;
11984;SDS011;6052;53.246;10.368;2023-12-20T03:28:03;11.10;;;2.70;;
11984;SDS011;6052;53.246;10.368;2023-12-20T03:30:33;7.30;;;1.90;;
11984;SDS011;6052;53.246;10.368;2023-12-20T03:33:04;4.87;;;1.70;;
11984;SDS011;6052;53.246;10.368;2023-12-20T03:35:34;4.63;;;1.70;;
11984;SDS011;6052;53.246;10.368;2023-12-20T03:38:06;4.30;;;2.10;;
11984;SDS011;6052;53.246;10.368;2023-12-20T03:40:36;2.30;;;1.40;;
11984;SDS011;6052;53.246;10.368;2023-12-20T03:43:06;5.23;;;1.47;;
11984;SDS011;6052;53.246;10.368;2023-12-20T03:45:36;9.17;;;1.93;;
11984;SDS011;6052;53.246;10.368;2023-12-20T03:48:06;5.47;;;1.80;;
11984;SDS011;6052;53.246;10.368;2023-12-20T03:50:37;5.33;;;1.60;;
11984;SDS011;6052;53.246;10.368;2023-12-20T03:53:09;4.93;;;1.77;;
11984;SDS011;6052;53.246;10.368;2023-12-20T03:55:39;9.20;;;1.80;;
11984;SDS011;6052;53.246;10.368;2023-12-20T03:58:09;4.13;;;1.50;;
11984;SDS011;6052;53.246;10.368;2023-12-20T04:00:38;5.57;;;1.77;;
11984;SDS011;6052;53.246;10.368;2023-12-20T04:03:08;5.77;;;1.30;;
11984;SDS011;6052;53.246;10.368;2023-12-20T04:05:39;4.10;;;1.60;;
11984;SDS011;6052;53.246;10.368;2023-12-20T04:08:12;9.70;;;1.77;;
11984;SDS011;6052;53.246;10.368;2023-12-20T04:10:41;5.03;;;1.70;;
11984;SDS011;6052;53.246;10.368;2023-12-20T04:13:11;6.13;;;1.67;;
11984;SDS011;6052;53.246;10.368;2023-12-20T04:15:41;9.37;;;1.90;;
11984;SDS011;6052;53.246;10.368;2023-12-20T04:18:11;3.20;;;1.60;;
11984;SDS011;6052;53.246;10.368;2023-12-20T04:20:41;8.93;;;1.60;;
11984;SDS011;6052;53.246;10.368;2023-12-20T04:23:13;4.87;;;1.63;;
11984;SDS011;6052;53.246;10.368;2023-12-20T04:25:43;4.40;;;1.83;;
11984;SDS011;6052;53.246;10.368;2023-12-20T04:28:13;4.90;;;1.70;;
11984;SDS011;6052;53.246;10.368;2023-12-20T04:30:43;3.67;;;1.40;;
11984;SDS011;6052;53.246;10.368;2023-12-20T04:33:14;5.27;;;1.80;;
11984;SDS011;6052;53.246;10.368;2023-12-20T04:35:44;4.37;;;2.00;;
11984;SDS011;6052;53.246;10.368;2023-12-20T04:38:16;2.80;;;1.63;;
11984;SDS011;6052;53.246;10.368;2023-12-20T04:40:46;4.63;;;1.57;;
11984;SDS011;6052;53.246;10.368;2023-12-20T04:43:16;5.27;;;1.80;;
11984;SDS011;6052;53.246;10.368;2023-12-20T04:45:45;3.73;;;1.77;;
11984;SDS011;6052;53.246;10.368;2023-12-20T04:48:15;4.97;;;1.97;;
11984;SDS011;6052;53.246;10.368;2023-12-20T04:50:45;7.80;;;2.13;;
11984;SDS011;6052;53.246;10.368;2023-12-20T04:53:18;8.77;;;2.00;;
11984;SDS011;6052;53.246;10.368;2023-12-20T04:55:47;6.57;;;1.90;;
11984;SDS011;6052;53.246;10.368;2023-12-20T04:58:17;10.27;;;2.00;;
11984;SDS011;6052;53.246;10.368;2023-12-20T05:00:47;7.40;;;2.10;;
11984;SDS011;6052;53.246;10.368;2023-12-20T05:03:17;8.80;;;1.97;;
11984;SDS011;6052;53.246;10.368;2023-12-20T05:05:46;7.50;;;1.73;;
11984;SDS011;6052;53.246;10.368;2023-12-20T05:08:18;2.97;;;1.27;;
11984;SDS011;6052;53.246;10.368;2023-12-20T05:10:48;4.80;;;2.30;;
11984;SDS011;6052;53.246;10.368;2023-12-20T05:13:18;9.13;;;2.53;;
11984;SDS011;6052;53.246;10.368;2023-12-20T05:15:51;9.47;;;2.00;;
11984;SDS011;6052;53.246;10.368;2023-12-20T05:18:21;8.30;;;2.47;;
11984;SDS011;6052;53.246;10.368;2023-12-20T05:20:51;6.63;;;2.00;;
11984;SDS011;6052;53.246;10.368;2023-12-20T05:23:27;5.90;;;1.53;;
11984;SDS011;6052;53.246;10.368;2023-12-20T05:25:57;8.37;;;2.40;;
11984;SDS011;6052;53.246;10.368;2023-12-20T05:28:26;4.57;;;1.40;;
11984;SDS011;6052;53.246;10.368;2023-12-20T05:30:56;7.33;;;1.90;;
11984;SDS011;6052;53.246;10.368;2023-12-20T05:33:26;10.53;;;2.17;;
11984;SDS011;6052;53.246;10.368;2023-12-20T05:35:56;6.63;;;1.90;;
11984;SDS011;6052;53.246;10.368;2023-12-20T05:38:28;4.40;;;1.83;;
11984;SDS011;6052;53.246;10.368;2023-12-20T05:40:58;6.97;;;2.00;;
11984;SDS011;6052;53.246;10.368;2023-12-20T05:43:27;6.87;;;2.03;;
11984;SDS011;6052;53.246;10.368;2023-12-20T05:45:57;4.20;;;1.40;;
11984;SDS011;6052;53.246;10.368;2023-12-20T05:48:27;10.40;;;1.90;;
11984;SDS011;6052;53.246;10.368;2023-12-20T05:50:57;8.57;;;2.37;;
11984;SDS011;6052;53.246;10.368;2023-12-20T05:53:29;5.47;;;2.00;;
11984;SDS011;6052;53.246;10.368;2023-12-20T05:55:59;7.07;;;2.10;;
11984;SDS011;6052;53.246;10.368;2023-12-20T05:58:29;11.17;;;2.23;;
11984;SDS011;6052;53.246;10.368;2023-12-20T06:00:58;8.13;;;2.00;;
11984;SDS011;6052;53.246;10.368;2023-12-20T06:03:28;9.90;;;2.30;;
11984;SDS011;6052;53.246;10.368;2023-12-20T06:05:58;6.60;;;2.67;;
11984;SDS011;6052;53.246;10.368;2023-12-20T06:08:43;12.43;;;1.87;;
11984;SDS011;6052;53.246;10.368;2023-12-20T06:11:13;9.13;;;2.83;;
11984;SDS011;6052;53.246;10.368;2023-12-20T06:13:43;7.13;;;2.43;;
11984;SDS011;6052;53.246;10.368;2023-12-20T06:16:12;11.03;;;2.70;;
11984;SDS011;6052;53.246;10.368;2023-12-20T06:18:42;7.30;;;2.37;;
11984;SDS011;6052;53.246;10.368;2023-12-20T06:21:12;5.53;;;2.03;;
11984;SDS011;6052;53.246;10.368;2023-12-20T06:23:44;7.37;;;2.20;;
11984;SDS011;6052;53.246;10.368;2023-12-20T06:26:14;3.63;;;2.17;;
11984;SDS011;6052;53.246;10.368;2023-12-20T06:28:44;7.77;;;2.63;;
11984;SDS011;6052;53.246;10.368;2023-12-20T06:31:13;7.97;;;2.70;;
11984;SDS011;6052;53.246;10.368;2023-12-20T06:33:43;9.17;;;2.37;;
11984;SDS011;6052;53.246;10.368;2023-12-20T06:36:13;6.23;;;2.50;;
11984;SDS011;6052;53.246;10.368;2023-12-20T06:38:45;6.70;;;2.60;;
11984;SDS011;6052;53.246;10.368;2023-12-20T06:41:15;7.80;;;2.87;;
11984;SDS011;6052;53.246;10.368;2023-12-20T06:43:45;7.43;;;2.53;;
11984;SDS011;6052;53.246;10.368;2023-12-20T06:46:16;9.17;;;2.57;;
11984;SDS011;6052;53.246;10.368;2023-12-20T06:48:46;6.50;;;2.30;;
11984;SDS011;6052;53.246;10.368;2023-12-20T06:51:16;5.17;;;2.40;;
11984;SDS011;6052;53.246;10.368;2023-12-20T06:53:49;5.83;;;1.93;;
11984;SDS011;6052;53.246;10.368;2023-12-20T06:56:19;10.37;;;2.90;;
11984;SDS011;6052;53.246;10.368;2023-12-20T06:58:48;9.97;;;2.27;;
11984;SDS011;6052;53.246;10.368;2023-12-20T07:01:18;7.43;;;2.13;;
11984;SDS011;6052;53.246;10.368;2023-12-20T07:03:49;6.97;;;2.07;;
11984;SDS011;6052;53.246;10.368;2023-12-20T07:06:18;6.53;;;2.27;;
11984;SDS011;6052;53.246;10.368;2023-12-20T07:08:54;7.90;;;2.20;;
11984;SDS011;6052;53.246;10.368;2023-12-20T07:11:24;10.00;;;2.20;;
11984;SDS011;6052;53.246;10.368;2023-12-20T07:13:54;7.70;;;2.40;;
11984;SDS011;6052;53.246;10.368;2023-12-20T07:16:23;5.33;;;2.07;;
11984;SDS011;6052;53.246;10.368;2023-12-20T07:18:53;7.57;;;1.90;;
11984;SDS011;6052;53.246;10.368;2023-12-20T07:21:23;7.13;;;1.80;;
11984;SDS011;6052;53.246;10.368;2023-12-20T07:23:56;6.57;;;2.30;;
11984;SDS011;6052;53.246;10.368;2023-12-20T07:26:25;6.23;;;2.03;;
11984;SDS011;6052;53.246;10.368;2023-12-20T07:28:55;7.20;;;1.43;;
11984;SDS011;6052;53.246;10.368;2023-12-20T07:31:25;7.07;;;2.73;;
11984;SDS011;6052;53.246;10.368;2023-12-20T07:33:55;5.50;;;1.57;;
11984;SDS011;6052;53.246;10.368;2023-12-20T07:36:25;12.10;;;2.63;;
11984;SDS011;6052;53.246;10.368;2023-12-20T07:38:57;9.90;;;2.50;;
11984;SDS011;6052;53.246;10.368;2023-12-20T07:41:26;9.30;;;2.50;;
11984;SDS011;6052;53.246;10.368;2023-12-20T07:43:56;7.43;;;1.50;;
11984;SDS011;6052;53.246;10.368;2023-12-20T07:46:26;6.27;;;2.13;;
11984;SDS011;6052;53.246;10.368;2023-12-20T07:48:56;5.50;;;2.00;;
11984;SDS011;6052;53.246;10.368;2023-12-20T07:51:26;8.67;;;2.17;;
11984;SDS011;6052;53.246;10.368;2023-12-20T07:53:59;5.67;;;2.23;;
11984;SDS011;6052;53.246;10.368;2023-12-20T07:56:30;5.23;;;1.80;;
11984;SDS011;6052;53.246;10.368;2023-12-20T07:58:59;9.63;;;1.97;;
11984;SDS011;6052;53.246;10.368;2023-12-20T08:01:30;10.60;;;1.93;;
11984;SDS011;6052;53.246;10.368;2023-12-20T08:04:00;4.23;;;1.80;;
11984;SDS011;6052;53.246;10.368;2023-12-20T08:06:30;5.47;;;2.00;;
11984;SDS011;6052;53.246;10.368;2023-12-20T08:09:02;7.93;;;2.07;;
11984;SDS011;6052;53.246;10.368;2023-12-20T08:11:32;10.17;;;2.73;;
11984;SDS011;6052;53.246;10.368;2023-12-20T08:14:02;10.60;;;2.73;;
11984;SDS011;6052;53.246;10.368;2023-12-20T08:16:31;8.40;;;1.90;;
11984;SDS011;6052;53.246;10.368;2023-12-20T08:19:02;8.93;;;2.57;;
11984;SDS011;6052;53.246;10.368;2023-12-20T08:21:32;7.77;;;2.70;;
11984;SDS011;6052;53.246;10.368;2023-12-20T08:24:07;10.33;;;2.27;;
11984;SDS011;6052;53.246;10.368;2023-12-20T08:26:37;8.90;;;2.47;;
11984;SDS011;6052;53.246;10.368;2023-12-20T08:29:07;6.67;;;2.00;;
11984;SDS011;6052;53.246;10.368;2023-12-20T08:31:37;7.10;;;1.97;;
11984;SDS011;6052;53.246;10.368;2023-12-20T08:34:07;6.10;;;2.47;;
11984;SDS011;6052;53.246;10.368;2023-12-20T08:36:38;9.33;;;2.43;;
11984;SDS011;6052;53.246;10.368;2023-12-20T08:39:13;6.30;;;2.23;;
11984;SDS011;6052;53.246;10.368;2023-12-20T08:41:42;9.93;;;2.47;;
11984;SDS011;6052;53.246;10.368;2023-12-20T08:44:12;7.57;;;2.10;;
11984;SDS011;6052;53.246;10.368;2023-12-20T08:46:42;7.77;;;1.77;;
11984;SDS011;6052;53.246;10.368;2023-12-20T08:49:12;11.60;;;2.20;;
11984;SDS011;6052;53.246;10.368;2023-12-20T08:51:42;9.50;;;1.97;;
11984;SDS011;6052;53.246;10.368;2023-12-20T08:54:15;8.63;;;2.43;;
11984;SDS011;6052;53.246;10.368;2023-12-20T08:56:46;12.00;;;2.67;;
11984;SDS011;6052;53.246;10.368;2023-12-20T08:59:16;7.90;;;2.50;;
11984;SDS011;6052;53.246;10.368;2023-12-20T09:01:46;3.87;;;2.20;;
11984;SDS011;6052;53.246;10.368;2023-12-20T09:04:21;5.73;;;2.00;;
11984;SDS011;6052;53.246;10.368;2023-12-20T09:06:51;7.80;;;2.23;;
11984;SDS011;6052;53.246;10.368;2023-12-20T09:09:25;7.60;;;2.17;;
11984;SDS011;6052;53.246;10.368;2023-12-20T09:11:55;6.87;;;2.00;;
11984;SDS011;6052;53.246;10.368;2023-12-20T09:14:25;8.40;;;2.70;;
11984;SDS011;6052;53.246;10.368;2023-12-20T09:16:55;5.10;;;1.83;;
11984;SDS011;6052;53.246;10.368;2023-12-20T09:19:25;7.40;;;1.97;;
11984;SDS011;6052;53.246;10.368;2023-12-20T09:21:55;6.13;;;2.20;;
11984;SDS011;6052;53.246;10.368;2023-12-20T09:24:27;7.17;;;1.87;;
11984;SDS011;6052;53.246;10.368;2023-12-20T09:26:57;3.63;;;1.80;;
11984;SDS011;6052;53.246;10.368;2023-12-20T09:29:26;10.17;;;2.03;;
11984;SDS011;6052;53.246;10.368;2023-12-20T09:31:56;7.97;;;1.80;;
11984;SDS011;6052;53.246;10.368;2023-12-20T09:34:27;8.47;;;1.90;;
11984;SDS011;6052;53.246;10.368;2023-12-20T09:36:57;9.07;;;2.67;;
11984;SDS011;6052;53.246;10.368;2023-12-20T09:39:30;7.97;;;1.80;;
11984;SDS011;6052;53.246;10.368;2023-12-20T09:42:02;3.70;;;1.83;;
11984;SDS011;6052;53.246;10.368;2023-12-20T09:44:33;7.43;;;2.20;;
11984;SDS011;6052;53.246;10.368;2023-12-20T09:47:07;7.00;;;1.90;;
11984;SDS011;6052;53.246;10.368;2023-12-20T09:49:37;5.73;;;1.77;;
11984;SDS011;6052;53.246;10.368;2023-12-20T09:52:08;9.53;;;2.60;;
11984;SDS011;6052;53.246;10.368;2023-12-20T09:54:43;6.33;;;1.80;;
11984;SDS011;6052;53.246;10.368;2023-12-20T09:57:15;9.97;;;2.60;;
11984;SDS011;6052;53.246;10.368;2023-12-20T09:59:45;5.37;;;1.93;;
11984;SDS011;6052;53.246;10.368;2023-12-20T10:02:15;7.23;;;1.93;;
11984;SDS011;6052;53.246;10.368;2023-12-20T10:04:54;9.17;;;1.90;;
11984;SDS011;6052;53.246;10.368;2023-12-20T10:07:24;5.57;;;2.20;;
11984;SDS011;6052;53.246;10.368;2023-12-20T10:09:57;3.10;;;0.90;;
11984;SDS011;6052;53.246;10.368;2023-12-20T10:12:27;4.47;;;1.17;;
11984;SDS011;6052;53.246;10.368;2023-12-20T10:14:57;2.83;;;1.27;;
11984;SDS011;6052;53.246;10.368;2023-12-20T10:17:27;2.93;;;1.20;;
11984;SDS011;6052;53.246;10.368;2023-12-20T10:19:58;2.47;;;0.60;;
11984;SDS011;6052;53.246;10.368;2023-12-20T10:22:29;2.00;;;0.80;;
11984;SDS011;6052;53.246;10.368;2023-12-20T10:25:03;2.87;;;0.70;;
11984;SDS011;6052;53.246;10.368;2023-12-20T10:27:33;0.57;;;0.47;;
11984;SDS011;6052;53.246;10.368;2023-12-20T10:30:04;0.93;;;0.60;;
11984;SDS011;6052;53.246;10.368;2023-12-20T10:32:35;1.33;;;0.70;;
11984;SDS011;6052;53.246;10.368;2023-12-20T10:35:05;1.33;;;0.57;;
11984;SDS011;6052;53.246;10.368;2023-12-20T10:37:35;1.50;;;0.67;;
11984;SDS011;6052;53.246;10.368;2023-12-20T10:40:09;1.63;;;0.80;;
11984;SDS011;6052;53.246;10.368;2023-12-20T10:42:42;0.93;;;0.60;;
11984;SDS011;6052;53.246;10.368;2023-12-20T10:45:12;2.17;;;0.80;;
11984;SDS011;6052;53.246;10.368;2023-12-20T10:47:44;1.17;;;0.80;;
11984;SDS011;6052;53.246;10.368;2023-12-20T10:50:16;3.07;;;1.20;;
11984;SDS011;6052;53.246;10.368;2023-12-20T10:52:47;0.70;;;0.50;;
11984;SDS011;6052;53.246;10.368;2023-12-20T10:55:24;0.47;;;0.40;;
11984;SDS011;6052;53.246;10.368;2023-12-20T10:58:01;0.53;;;0.33;;
11984;SDS011;6052;53.246;10.368;2023-12-20T11:00:36;1.03;;;0.40;;
11984;SDS011;6052;53.246;10.368;2023-12-20T11:03:09;0.40;;;0.40;;
11984;SDS011;6052;53.246;10.368;2023-12-20T11:05:42;0.50;;;0.50;;
11984;SDS011;6052;53.246;10.368;2023-12-20T11:08:17;0.60;;;0.60;;
11984;SDS011;6052;53.246;10.368;2023-12-20T11:10:55;1.07;;;0.50;;
11984;SDS011;6052;53.246;10.368;2023-12-20T11:13:31;0.43;;;0.43;;
11984;SDS011;6052;53.246;10.368;2023-12-20T11:16:05;0.77;;;0.63;;
11984;SDS011;6052;53.246;10.368;2023-12-20T11:18:35;0.70;;;0.50;;
11984;SDS011;6052;53.246;10.368;2023-12-20T11:21:05;0.60;;;0.50;;
11984;SDS011;6052;53.246;10.368;2023-12-20T11:23:34;1.80;;;0.77;;
11984;SDS011;6052;53.246;10.368;2023-12-20T11:26:07;4.53;;;0.77;;
11984;SDS011;6052;53.246;10.368;2023-12-20T11:28:36;1.67;;;1.00;;
11984;SDS011;6052;53.246;10.368;2023-12-20T11:31:06;2.63;;;0.73;;
11984;SDS011;6052;53.246;10.368;2023-12-20T11:33:36;1.10;;;0.67;;
11984;SDS011;6052;53.246;10.368;2023-12-20T11:36:12;8.73;;;0.60;;
11984;SDS011;6052;53.246;10.368;2023-12-20T11:38:49;2.93;;;0.83;;
11984;SDS011;6052;53.246;10.368;2023-12-20T11:41:26;1.47;;;0.90;;
11984;SDS011;6052;53.246;10.368;2023-12-20T11:43:56;2.00;;;0.53;;
11984;SDS011;6052;53.246;10.368;2023-12-20T11:46:27;2.63;;;1.00;;
11984;SDS011;6052;53.246;10.368;2023-12-20T11:48:57;3.47;;;1.00;;
11984;SDS011;6052;53.246;10.368;2023-12-20T11:51:26;1.77;;;0.90;;
11984;SDS011;6052;53.246;10.368;2023-12-20T11:53:56;5.50;;;0.73;;
11984;SDS011;6052;53.246;10.368;2023-12-20T11:56:28;2.13;;;0.87;;
11984;SDS011;6052;53.246;10.368;2023-12-20T11:58:58;5.83;;;0.80;;
11984;SDS011;6052;53.246;10.368;2023-12-20T12:01:47;2.97;;;0.97;;
11984;SDS011;6052;53.246;10.368;2023-12-20T12:04:18;2.17;;;1.07;;
11984;SDS011;6052;53.246;10.368;2023-12-20T12:06:48;2.03;;;0.90;;
11984;SDS011;6052;53.246;10.368;2023-12-20T12:09:18;0.77;;;0.63;;
11984;SDS011;6052;53.246;10.368;2023-12-20T12:11:50;3.80;;;0.67;;
11984;SDS011;6052;53.246;10.368;2023-12-20T12:14:20;4.33;;;1.07;;
11984;SDS011;6052;53.246;10.368;2023-12-20T12:16:49;1.40;;;0.67;;
11984;SDS011;6052;53.246;10.368;2023-12-20T12:19:20;2.47;;;1.00;;
11984;SDS011;6052;53.246;10.368;2023-12-20T12:21:50;4.20;;;1.47;;
11984;SDS011;6052;53.246;10.368;2023-12-20T12:24:20;3.67;;;0.83;;
11984;SDS011;6052;53.246;10.368;2023-12-20T12:26:56;1.40;;;0.80;;
11984;SDS011;6052;53.246;10.368;2023-12-20T12:29:27;2.77;;;0.90;;
11984;SDS011;6052;53.246;10.368;2023-12-20T12:31:57;2.67;;;0.87;;
11984;SDS011;6052;53.246;10.368;2023-12-20T12:34:27;1.43;;;1.13;;
11984;SDS011;6052;53.246;10.368;2023-12-20T12:36:56;5.00;;;1.10;;
11984;SDS011;6052;53.246;10.368;2023-12-20T12:39:26;2.13;;;0.97;;
11984;SDS011;6052;53.246;10.368;2023-12-20T12:41:59;4.10;;;0.93;;
11984;SDS011;6052;53.246;10.368;2023-12-20T12:44:28;7.13;;;1.43;;
11984;SDS011;6052;53.246;10.368;2023-12-20T12:46:58;6.83;;;1.10;;
11984;SDS011;6052;53.246;10.368;2023-12-20T12:49:29;5.77;;;1.30;;
11984;SDS011;6052;53.246;10.368;2023-12-20T12:51:59;2.57;;;1.10;;
11984;SDS011;6052;53.246;10.368;2023-12-20T12:54:29;5.63;;;1.27;;
11984;SDS011;6052;53.246;10.368;2023-12-20T12:57:02;2.17;;;0.90;;
11984;SDS011;6052;53.246;10.368;2023-12-20T12:59:32;3.20;;;0.90;;
11984;SDS011;6052;53.246;10.368;2023-12-20T13:02:06;4.00;;;0.90;;
11984;SDS011;6052;53.246;10.368;2023-12-20T13:04:36;1.60;;;1.03;;
11984;SDS011;6052;53.246;10.368;2023-12-20T13:07:06;2.53;;;0.70;;
11984;SDS011;6052;53.246;10.368;2023-12-20T13:09:37;6.70;;;0.97;;
11984;SDS011;6052;53.246;10.368;2023-12-20T13:12:10;4.33;;;1.10;;
11984;SDS011;6052;53.246;10.368;2023-12-20T13:14:39;3.80;;;0.87;;
11984;SDS011;6052;53.246;10.368;2023-12-20T13:17:09;4.57;;;1.20;;
11984;SDS011;6052;53.246;10.368;2023-12-20T13:19:39;3.13;;;0.60;;
11984;SDS011;6052;53.246;10.368;2023-12-20T13:22:09;0.97;;;0.50;;
11984;SDS011;6052;53.246;10.368;2023-12-20T13:24:38;2.80;;;0.70;;
11984;SDS011;6052;53.246;10.368;2023-12-20T13:27:13;1.00;;;0.57;;
11984;SDS011;6052;53.246;10.368;2023-12-20T13:29:43;3.80;;;0.83;;
11984;SDS011;6052;53.246;10.368;2023-12-20T13:32:12;1.37;;;1.03;;
11984;SDS011;6052;53.246;10.368;2023-12-20T13:34:42;2.83;;;1.03;;
11984;SDS011;6052;53.246;10.368;2023-12-20T13:37:13;4.47;;;1.33;;
11984;SDS011;6052;53.246;10.368;2023-12-20T13:39:43;5.57;;;1.27;;
11984;SDS011;6052;53.246;10.368;2023-12-20T13:42:15;4.83;;;1.13;;
11984;SDS011;6052;53.246;10.368;2023-12-20T13:44:47;8.57;;;1.53;;
11984;SDS011;6052;53.246;10.368;2023-12-20T13:47:16;2.87;;;1.73;;
11984;SDS011;6052;53.246;10.368;2023-12-20T13:49:50;4.37;;;1.40;;
11984;SDS011;6052;53.246;10.368;2023-12-20T13:52:20;4.80;;;1.33;;
11984;SDS011;6052;53.246;10.368;2023-12-20T13:54:50;3.20;;;1.40;;
11984;SDS011;6052;53.246;10.368;2023-12-20T13:57:22;4.47;;;1.90;;
11984;SDS011;6052;53.246;10.368;2023-12-20T14:00:13;3.33;;;1.80;;
11984;SDS011;6052;53.246;10.368;2023-12-20T14:02:43;5.63;;;1.53;;
11984;SDS011;6052;53.246;10.368;2023-12-20T14:05:13;4.37;;;1.37;;
11984;SDS011;6052;53.246;10.368;2023-12-20T14:07:45;6.23;;;1.77;;
11984;SDS011;6052;53.246;10.368;2023-12-20T14:10:16;8.90;;;1.97;;
11984;SDS011;6052;53.246;10.368;2023-12-20T14:12:48;3.80;;;1.13;;
11984;SDS011;6052;53.246;10.368;2023-12-20T14:15:18;5.13;;;1.57;;
11984;SDS011;6052;53.246;10.368;2023-12-20T14:17:47;13.03;;;2.03;;
11984;SDS011;6052;53.246;10.368;2023-12-20T14:20:18;6.17;;;1.87;;
11984;SDS011;6052;53.246;10.368;2023-12-20T14:22:48;6.60;;;2.03;;
11984;SDS011;6052;53.246;10.368;2023-12-20T14:25:18;7.73;;;2.10;;
11984;SDS011;6052;53.246;10.368;2023-12-20T14:27:52;4.87;;;2.00;;
11984;SDS011;6052;53.246;10.368;2023-12-20T14:30:22;8.53;;;1.53;;
11984;SDS011;6052;53.246;10.368;2023-12-20T14:32:52;10.60;;;2.37;;
11984;SDS011;6052;53.246;10.368;2023-12-20T14:35:21;10.00;;;1.70;;
11984;SDS011;6052;53.246;10.368;2023-12-20T14:37:51;4.50;;;1.60;;
11984;SDS011;6052;53.246;10.368;2023-12-20T14:40:21;5.40;;;1.83;;
11984;SDS011;6052;53.246;10.368;2023-12-20T14:42:53;5.43;;;1.73;;
11984;SDS011;6052;53.246;10.368;2023-12-20T14:45:23;4.60;;;1.80;;
11984;SDS011;6052;53.246;10.368;2023-12-20T14:47:54;9.10;;;2.40;;
11984;SDS011;6052;53.246;10.368;2023-12-20T14:50:25;4.27;;;2.00;;
11984;SDS011;6052;53.246;10.368;2023-12-20T14:52:55;5.10;;;1.77;;
11984;SDS011;6052;53.246;10.368;2023-12-20T14:55:25;4.70;;;1.83;;
11984;SDS011;6052;53.246;10.368;2023-12-20T14:57:59;6.97;;;1.87;;
11984;SDS011;6052;53.246;10.368;2023-12-20T15:00:29;6.07;;;1.67;;
11984;SDS011;6052;53.246;10.368;2023-12-20T15:03:00;8.83;;;1.93;;
11984;SDS011;6052;53.246;10.368;2023-12-20T15:05:30;7.60;;;2.13;;
11984;SDS011;6052;53.246;10.368;2023-12-20T15:08:00;7.90;;;1.53;;
11984;SDS011;6052;53.246;10.368;2023-12-20T15:10:30;4.30;;;1.80;;